createdAt,value
2018-07-22T00:00:02.103Z,22.00
2018-07-22T00:01:02.125Z,19.10
2018-07-22T00:02:02.137Z,19.60
2018-07-22T00:03:02.154Z,19.90
2018-07-22T00:04:02.176Z,19.60
2018-07-22T00:05:02.188Z,20.90
2018-07-22T00:06:02.204Z,19.60
2018-07-22T00:07:02.223Z,19.50
2018-07-22T00:08:02.240Z,19.90
2018-07-22T00:09:02.259Z,20.50
2018-07-22T00:10:02.274Z,20.30
2018-07-22T00:11:02.298Z,21.10
2018-07-22T00:12:02.313Z,20.70
2018-07-22T00:13:02.327Z,20.90
2018-07-22T00:14:02.392Z,20.50
2018-07-22T00:15:02.358Z,21.60
2018-07-22T00:16:02.376Z,21.80
2018-07-22T00:17:02.399Z,20.70
2018-07-22T00:18:02.409Z,21.20
2018-07-22T00:19:02.425Z,20.20
2018-07-22T00:20:02.444Z,21.10
2018-07-22T00:21:02.462Z,21.10
2018-07-22T00:22:02.478Z,22.50
2018-07-22T00:23:02.494Z,21.50
2018-07-22T00:24:02.521Z,21.60
2018-07-22T00:25:02.527Z,22.00
2018-07-22T00:26:02.544Z,21.60
2018-07-22T00:27:02.568Z,20.90
2018-07-22T00:28:02.653Z,20.60
2018-07-22T00:29:02.596Z,21.60
2018-07-22T00:30:02.623Z,22.10
2018-07-22T00:31:02.630Z,22.20
2018-07-22T00:32:02.648Z,21.80
2018-07-22T00:33:02.678Z,22.80
2018-07-22T00:34:02.680Z,22.40
2018-07-22T00:35:02.697Z,22.40
2018-07-22T00:36:02.713Z,21.30
2018-07-22T00:37:02.731Z,20.40
2018-07-22T00:38:02.746Z,21.20
2018-07-22T00:39:02.765Z,23.00
2018-07-22T00:40:02.782Z,21.30
2018-07-22T00:41:02.803Z,22.20
2018-07-22T00:42:02.820Z,21.60
2018-07-22T00:43:02.832Z,22.00
2018-07-22T00:44:02.849Z,20.90
2018-07-22T00:45:02.867Z,21.50
2018-07-22T00:46:02.883Z,21.20
2018-07-22T00:47:02.899Z,22.00
2018-07-22T00:48:02.917Z,21.00
2018-07-22T00:49:02.952Z,21.10
2018-07-22T00:50:02.957Z,21.40
2018-07-22T00:51:02.988Z,22.60
2018-07-22T00:52:02.985Z,21.30
2018-07-22T00:53:03.001Z,21.30
2018-07-22T00:54:03.020Z,21.10
2018-07-22T00:55:03.037Z,21.40
2018-07-22T00:56:03.051Z,22.20
2018-07-22T00:57:03.071Z,21.70
2018-07-22T00:58:03.088Z,21.90
2018-07-22T00:59:03.152Z,22.20
2018-07-22T01:00:03.305Z,21.50
2018-07-22T01:01:03.341Z,22.20
2018-07-22T01:02:03.403Z,22.70
2018-07-22T01:03:03.180Z,22.70
2018-07-22T01:04:03.186Z,23.00
2018-07-22T01:05:03.206Z,21.30
2018-07-22T01:06:03.224Z,21.90
2018-07-22T01:07:03.235Z,22.60
2018-07-22T01:08:03.252Z,23.30
2018-07-22T01:09:03.271Z,22.20
2018-07-22T01:10:03.286Z,23.90
2018-07-22T01:11:03.707Z,23.00
2018-07-22T01:12:03.319Z,22.10
2018-07-22T01:13:03.337Z,22.20
2018-07-22T01:14:03.359Z,22.60
2018-07-22T01:15:03.393Z,23.20
2018-07-22T01:16:03.397Z,23.30
2018-07-22T01:17:03.404Z,22.10
2018-07-22T01:18:03.421Z,22.50
2018-07-22T01:19:03.436Z,22.80
2018-07-22T01:20:03.459Z,21.90
2018-07-22T01:21:03.471Z,22.90
2018-07-22T01:22:03.627Z,23.90
2018-07-22T01:23:03.519Z,23.10
2018-07-22T01:24:03.521Z,23.50
2018-07-22T01:25:03.542Z,23.30
2018-07-22T01:26:03.556Z,23.60
2018-07-22T01:27:03.570Z,23.00
2018-07-22T01:28:03.595Z,23.10
2018-07-22T01:29:03.757Z,23.20
2018-07-22T01:30:03.983Z,22.20
2018-07-22T01:31:03.645Z,22.80
2018-07-22T01:32:03.656Z,22.70
2018-07-22T01:33:03.673Z,23.10
2018-07-22T01:34:03.696Z,22.10
2018-07-22T01:35:03.702Z,23.00
2018-07-22T01:36:03.723Z,23.60
2018-07-22T01:37:03.812Z,22.70
2018-07-22T01:38:03.821Z,24.20
2018-07-22T01:39:03.771Z,22.70
2018-07-22T01:40:03.787Z,23.70
2018-07-22T01:41:03.823Z,22.30
2018-07-22T01:42:03.821Z,23.30
2018-07-22T01:43:03.835Z,24.00
2018-07-22T01:44:03.854Z,24.00
2018-07-22T01:45:03.873Z,24.00
2018-07-22T01:46:03.886Z,22.60
2018-07-22T01:47:03.903Z,23.80
2018-07-22T01:48:03.919Z,23.10
2018-07-22T01:49:03.935Z,23.00
2018-07-22T01:50:03.957Z,22.20
2018-07-22T01:51:03.968Z,21.90
2018-07-22T01:52:03.985Z,23.10
2018-07-22T01:53:04.001Z,23.70
2018-07-22T01:54:04.026Z,23.30
2018-07-22T01:55:04.034Z,23.40
2018-07-22T01:56:04.057Z,23.40
2018-07-22T01:57:04.069Z,24.70
2018-07-22T01:58:04.092Z,23.90
2018-07-22T01:59:04.103Z,23.60
2018-07-22T02:00:04.118Z,25.00
2018-07-22T02:01:04.134Z,24.30
2018-07-22T02:02:04.153Z,24.40
2018-07-22T02:03:04.174Z,23.80
2018-07-22T02:04:04.185Z,23.90
2018-07-22T02:05:04.287Z,23.10
2018-07-22T02:06:04.234Z,23.70
2018-07-22T02:07:04.257Z,24.20
2018-07-22T02:08:04.251Z,23.90
2018-07-22T02:09:04.271Z,23.50
2018-07-22T02:10:04.288Z,23.50
2018-07-22T02:11:04.314Z,24.60
2018-07-22T02:12:04.316Z,23.90
2018-07-22T02:13:04.341Z,24.90
2018-07-22T02:14:04.350Z,25.30
2018-07-22T02:15:04.366Z,23.80
2018-07-22T02:16:04.382Z,24.10
2018-07-22T02:17:04.400Z,24.70
2018-07-22T02:18:04.416Z,28.00
2018-07-22T02:19:04.435Z,26.00
2018-07-22T02:20:04.468Z,24.90
2018-07-22T02:21:04.465Z,24.20
2018-07-22T02:22:04.488Z,25.00
2018-07-22T02:23:04.510Z,24.90
2018-07-22T02:24:04.517Z,24.40
2018-07-22T02:25:04.534Z,25.40
2018-07-22T02:26:04.554Z,24.90
2018-07-22T02:27:04.566Z,24.70
2018-07-22T02:28:04.582Z,25.10
2018-07-22T02:29:04.597Z,25.00
2018-07-22T02:30:04.619Z,26.20
2018-07-22T02:31:04.638Z,25.10
2018-07-22T02:32:04.647Z,26.00
2018-07-22T02:33:04.664Z,26.60
2018-07-22T02:34:04.679Z,25.10
2018-07-22T02:35:04.696Z,24.90
2018-07-22T02:36:04.715Z,25.40
2018-07-22T02:37:04.729Z,25.40
2018-07-22T02:39:04.871Z,26.30
2018-07-22T02:40:04.885Z,26.60
2018-07-22T02:41:05.196Z,25.90
2018-07-22T02:42:04.888Z,26.10
2018-07-22T02:43:04.869Z,26.70
2018-07-22T02:44:04.850Z,26.40
2018-07-22T02:45:04.864Z,26.90
2018-07-22T02:46:04.893Z,26.00
2018-07-22T02:47:04.897Z,26.40
2018-07-22T02:48:04.910Z,26.00
2018-07-22T02:49:04.929Z,26.30
2018-07-22T02:50:04.944Z,26.70
2018-07-22T02:51:04.959Z,26.80
2018-07-22T02:52:04.976Z,27.80
2018-07-22T02:53:04.993Z,27.00
2018-07-22T02:54:05.018Z,26.70
2018-07-22T02:55:05.027Z,28.00
2018-07-22T02:56:05.049Z,28.00
2018-07-22T02:57:05.074Z,27.50
2018-07-22T02:58:05.096Z,27.70
2018-07-22T02:59:05.185Z,28.50
2018-07-22T03:00:05.150Z,28.50
2018-07-22T03:01:05.123Z,28.90
2018-07-22T03:02:05.141Z,27.40
2018-07-22T03:03:05.176Z,28.20
2018-07-22T03:04:05.171Z,28.00
2018-07-22T03:05:05.196Z,26.80
2018-07-22T03:06:05.243Z,28.30
2018-07-22T03:07:05.225Z,28.60
2018-07-22T03:08:05.251Z,27.40
2018-07-22T03:09:05.255Z,28.10
2018-07-22T03:10:05.273Z,27.70
2018-07-22T03:11:05.291Z,28.10
2018-07-22T03:12:05.304Z,29.30
2018-07-22T03:13:05.326Z,28.60
2018-07-22T03:14:05.385Z,28.20
2018-07-22T03:15:05.356Z,29.00
2018-07-22T03:16:05.376Z,29.10
2018-07-22T03:17:05.387Z,29.30
2018-07-22T03:18:05.415Z,28.50
2018-07-22T03:19:05.426Z,29.00
2018-07-22T03:20:05.437Z,28.90
2018-07-22T03:21:05.452Z,29.90
2018-07-22T03:22:05.473Z,28.70
2018-07-22T03:23:05.484Z,30.30
2018-07-22T03:24:05.505Z,29.20
2018-07-22T03:25:06.516Z,29.40
2018-07-22T03:26:05.534Z,29.80
2018-07-22T03:27:05.557Z,30.50
2018-07-22T03:28:05.567Z,31.60
2018-07-22T03:29:05.594Z,28.60
2018-07-22T03:30:05.603Z,30.00
2018-07-22T03:31:05.617Z,29.40
2018-07-22T03:32:05.655Z,30.30
2018-07-22T03:33:05.661Z,29.70
2018-07-22T03:34:05.668Z,29.80
2018-07-22T03:35:05.681Z,28.20
2018-07-22T03:36:05.696Z,29.60
2018-07-22T03:37:05.717Z,29.50
2018-07-22T03:38:05.735Z,29.30
2018-07-22T03:39:05.746Z,32.60
2018-07-22T03:40:05.780Z,30.50
2018-07-22T03:41:05.783Z,29.20
2018-07-22T03:42:05.805Z,30.00
2018-07-22T03:43:05.820Z,30.10
2018-07-22T03:45:05.871Z,29.90
2018-07-22T03:46:05.897Z,30.00
2018-07-22T03:47:05.880Z,30.10
2018-07-22T03:48:05.902Z,29.70
2018-07-22T03:49:05.916Z,29.20
2018-07-22T03:50:05.927Z,29.90
2018-07-22T03:51:05.949Z,30.70
2018-07-22T03:52:05.982Z,29.80
2018-07-22T03:53:05.983Z,30.00
2018-07-22T03:54:05.994Z,31.40
2018-07-22T03:55:06.016Z,28.90
2018-07-22T03:56:06.042Z,30.50
2018-07-22T03:57:06.051Z,32.40
2018-07-22T03:58:06.069Z,29.70
2018-07-22T03:59:06.077Z,29.80
2018-07-22T04:00:06.090Z,30.70
2018-07-22T04:01:06.286Z,31.60
2018-07-22T04:02:06.122Z,30.80
2018-07-22T04:03:06.142Z,30.20
2018-07-22T04:04:06.161Z,31.50
2018-07-22T04:05:06.665Z,31.70
2018-07-22T04:06:06.311Z,30.70
2018-07-22T04:07:06.255Z,28.90
2018-07-22T04:08:06.229Z,29.40
2018-07-22T04:09:06.239Z,28.70
2018-07-22T04:10:06.256Z,28.90
2018-07-22T04:11:06.272Z,30.20
2018-07-22T04:12:06.289Z,30.20
2018-07-22T04:13:06.308Z,31.20
2018-07-22T04:14:06.324Z,30.70
2018-07-22T04:15:06.343Z,29.50
2018-07-22T04:16:06.361Z,29.90
2018-07-22T04:17:06.369Z,30.10
2018-07-22T04:18:06.388Z,29.80
2018-07-22T04:19:06.460Z,29.80
2018-07-22T04:20:06.617Z,28.60
2018-07-22T04:21:06.436Z,29.40
2018-07-22T04:22:06.451Z,28.60
2018-07-22T04:23:06.467Z,28.50
2018-07-22T04:24:06.484Z,29.10
2018-07-22T04:25:06.508Z,28.80
2018-07-22T04:26:06.519Z,29.10
2018-07-22T04:27:06.532Z,30.30
2018-07-22T04:28:06.568Z,30.00
2018-07-22T04:29:06.570Z,31.00
2018-07-22T04:30:06.581Z,29.20
2018-07-22T04:31:06.614Z,31.60
2018-07-22T04:32:06.615Z,29.30
2018-07-22T04:33:06.634Z,30.30
2018-07-22T04:34:06.649Z,29.00
2018-07-22T04:35:06.665Z,29.00
2018-07-22T04:36:06.687Z,28.30
2018-07-22T04:37:06.707Z,29.40
2018-07-22T04:38:06.718Z,29.30
2018-07-22T04:39:06.754Z,29.60
2018-07-22T04:40:06.749Z,28.90
2018-07-22T04:41:06.765Z,29.10
2018-07-22T04:42:06.778Z,29.30
2018-07-22T04:43:06.817Z,29.70
2018-07-22T04:44:06.811Z,29.30
2018-07-22T04:45:06.828Z,29.30
2018-07-22T04:46:06.843Z,27.00
2018-07-22T04:47:06.864Z,28.50
2018-07-22T04:48:06.877Z,28.60
2018-07-22T04:50:07.074Z,28.10
2018-07-22T04:51:07.033Z,27.40
2018-07-22T04:52:06.942Z,28.70
2018-07-22T04:53:06.961Z,27.60
2018-07-22T04:54:06.975Z,28.90
2018-07-22T04:55:06.993Z,26.90
2018-07-22T04:56:07.010Z,26.30
2018-07-22T04:57:07.033Z,27.90
2018-07-22T04:58:07.060Z,27.60
2018-07-22T04:59:07.138Z,27.20
2018-07-22T05:00:07.079Z,27.20
2018-07-22T05:01:07.088Z,26.60
2018-07-22T05:02:07.110Z,26.20
2018-07-22T05:03:07.123Z,28.20
2018-07-22T05:04:07.148Z,29.20
2018-07-22T05:05:07.179Z,27.20
2018-07-22T05:06:07.170Z,28.50
2018-07-22T05:07:07.193Z,29.10
2018-07-22T05:08:07.204Z,28.10
2018-07-22T05:09:07.225Z,29.40
2018-07-22T05:10:07.238Z,29.40
2018-07-22T05:11:07.260Z,29.60
2018-07-22T05:12:07.284Z,30.60
2018-07-22T05:13:07.289Z,29.10
2018-07-22T05:14:07.312Z,29.40
2018-07-22T05:15:07.320Z,30.80
2018-07-22T05:16:07.335Z,29.00
2018-07-22T05:17:07.354Z,28.90
2018-07-22T05:18:07.375Z,29.60
2018-07-22T05:19:07.382Z,30.40
2018-07-22T05:20:07.410Z,30.00
2018-07-22T05:21:07.414Z,30.40
2018-07-22T05:22:07.435Z,29.20
2018-07-22T05:23:07.517Z,30.60
2018-07-22T05:24:07.554Z,29.60
2018-07-22T05:25:07.502Z,28.70
2018-07-22T05:26:07.514Z,27.60
2018-07-22T05:27:07.515Z,28.20
2018-07-22T05:28:07.530Z,27.10
2018-07-22T05:29:07.559Z,27.50
2018-07-22T05:30:07.565Z,28.00
2018-07-22T05:31:07.582Z,27.30
2018-07-22T05:32:07.621Z,28.00
2018-07-22T05:33:07.639Z,28.10
2018-07-22T05:34:07.631Z,27.60
2018-07-22T05:35:07.651Z,27.20
2018-07-22T05:36:07.693Z,27.60
2018-07-22T05:37:07.683Z,27.10
2018-07-22T05:38:07.785Z,27.30
2018-07-22T05:39:07.805Z,27.40
2018-07-22T05:40:07.755Z,27.50
2018-07-22T05:41:07.781Z,26.30
2018-07-22T05:42:07.805Z,26.20
2018-07-22T05:43:07.787Z,29.00
2018-07-22T05:44:07.789Z,27.40
2018-07-22T05:45:07.809Z,27.40
2018-07-22T05:46:08.269Z,26.80
2018-07-22T05:47:07.850Z,26.80
2018-07-22T05:48:07.880Z,26.60
2018-07-22T05:49:07.876Z,27.00
2018-07-22T05:50:07.884Z,27.00
2018-07-22T05:51:07.902Z,27.40
2018-07-22T05:52:07.918Z,27.70
2018-07-22T05:53:07.941Z,27.70
2018-07-22T05:54:07.954Z,27.60
2018-07-22T05:55:07.966Z,27.20
2018-07-22T05:56:07.984Z,28.10
2018-07-22T05:57:08.000Z,28.00
2018-07-22T05:58:08.098Z,27.70
2018-07-22T05:59:08.062Z,28.20
2018-07-22T06:00:08.054Z,28.00
2018-07-22T06:01:08.071Z,27.00
2018-07-22T06:02:08.094Z,27.40
2018-07-22T06:03:08.120Z,27.10
2018-07-22T06:04:08.115Z,27.10
2018-07-22T06:05:08.133Z,26.30
2018-07-22T06:06:08.148Z,25.30
2018-07-22T06:07:08.164Z,26.00
2018-07-22T06:08:08.186Z,27.30
2018-07-22T06:09:08.513Z,27.60
2018-07-22T06:10:08.230Z,26.60
2018-07-22T06:11:08.237Z,27.00
2018-07-22T06:12:08.295Z,27.70
2018-07-22T06:13:08.270Z,26.00
2018-07-22T06:14:08.278Z,26.40
2018-07-22T06:15:08.303Z,26.80
2018-07-22T06:16:08.328Z,27.10
2018-07-22T06:17:08.330Z,26.20
2018-07-22T06:18:08.345Z,26.40
2018-07-22T06:19:08.367Z,26.80
2018-07-22T06:20:08.430Z,25.60
2018-07-22T06:21:08.396Z,25.00
2018-07-22T06:22:08.413Z,26.70
2018-07-22T06:23:08.428Z,25.60
2018-07-22T06:24:08.449Z,24.60
2018-07-22T06:25:08.466Z,25.40
2018-07-22T06:26:08.477Z,24.30
2018-07-22T06:27:08.495Z,24.00
2018-07-22T06:28:08.510Z,24.00
2018-07-22T06:29:08.528Z,23.20
2018-07-22T06:30:08.543Z,23.10
2018-07-22T06:31:08.561Z,21.90
2018-07-22T06:32:08.576Z,23.80
2018-07-22T06:33:08.700Z,22.70
2018-07-22T06:34:08.675Z,23.20
2018-07-22T06:35:08.677Z,23.30
2018-07-22T06:36:08.644Z,22.70
2018-07-22T06:37:08.662Z,22.60
2018-07-22T06:38:08.687Z,22.50
2018-07-22T06:39:08.693Z,21.90
2018-07-22T06:40:08.710Z,21.70
2018-07-22T06:41:08.791Z,21.80
2018-07-22T06:42:08.749Z,20.60
2018-07-22T06:43:08.760Z,20.00
2018-07-22T06:44:08.785Z,20.60
2018-07-22T06:45:08.800Z,19.60
2018-07-22T06:46:08.859Z,20.10
2018-07-22T06:47:08.847Z,20.00
2018-07-22T06:48:08.845Z,20.80
2018-07-22T06:49:08.859Z,20.90
2018-07-22T06:50:08.874Z,20.50
2018-07-22T06:51:08.890Z,20.80
2018-07-22T06:52:08.907Z,19.40
2018-07-22T06:53:08.926Z,20.90
2018-07-22T06:54:08.955Z,18.80
2018-07-22T06:55:08.966Z,19.20
2018-07-22T06:56:08.980Z,19.90
2018-07-22T06:57:09.047Z,19.20
2018-07-22T06:58:09.006Z,18.60
2018-07-22T06:59:09.029Z,20.10
2018-07-22T07:00:09.042Z,19.20
2018-07-22T07:01:09.059Z,19.00
2018-07-22T07:02:09.074Z,19.90
2018-07-22T07:03:09.102Z,18.90
2018-07-22T07:04:09.111Z,19.20
2018-07-22T07:05:09.269Z,19.70
2018-07-22T07:06:09.140Z,19.30
2018-07-22T07:07:09.361Z,18.80
2018-07-22T07:08:09.187Z,18.90
2018-07-22T07:09:09.202Z,18.60
2018-07-22T07:10:09.213Z,18.40
2018-07-22T07:11:09.227Z,17.70
2018-07-22T07:12:09.243Z,18.10
2018-07-22T07:13:09.260Z,17.50
2018-07-22T07:14:09.279Z,19.30
2018-07-22T07:15:09.299Z,17.80
2018-07-22T07:16:09.331Z,17.10
2018-07-22T07:17:09.329Z,17.80
2018-07-22T07:18:09.344Z,17.00
2018-07-22T07:19:09.364Z,18.00
2018-07-22T07:20:09.379Z,16.50
2018-07-22T07:21:09.399Z,16.50
2018-07-22T07:22:09.412Z,16.80
2018-07-22T07:23:09.431Z,16.70
2018-07-22T07:24:09.450Z,17.40
2018-07-22T07:25:09.467Z,16.90
2018-07-22T07:26:09.482Z,18.30
2018-07-22T07:27:09.499Z,16.30
2018-07-22T07:28:09.514Z,15.30
2018-07-22T07:29:09.540Z,16.30
2018-07-22T07:30:09.567Z,16.10
2018-07-22T07:31:09.567Z,15.70
2018-07-22T07:32:09.605Z,15.30
2018-07-22T07:33:09.602Z,15.60
2018-07-22T07:34:09.630Z,15.90
2018-07-22T07:35:09.639Z,15.40
2018-07-22T07:36:09.654Z,15.20
2018-07-22T07:37:09.668Z,15.30
2018-07-22T07:38:09.686Z,15.20
2018-07-22T07:39:09.708Z,15.30
2018-07-22T07:40:09.874Z,14.30
2018-07-22T07:41:09.737Z,15.30
2018-07-22T07:42:09.980Z,15.00
2018-07-22T07:43:09.847Z,14.10
2018-07-22T07:44:10.099Z,13.90
2018-07-22T07:45:09.807Z,15.60
2018-07-22T07:46:09.829Z,15.30
2018-07-22T07:47:09.839Z,14.70
2018-07-22T07:48:09.862Z,15.80
2018-07-22T07:49:09.876Z,15.30
2018-07-22T07:50:09.895Z,14.90
2018-07-22T07:51:09.920Z,13.90
2018-07-22T07:52:09.935Z,15.20
2018-07-22T07:53:09.946Z,14.90
2018-07-22T07:54:09.969Z,22.50
2018-07-22T07:55:09.980Z,16.00
2018-07-22T07:56:09.995Z,15.80
2018-07-22T07:57:10.014Z,15.10
2018-07-22T07:58:10.032Z,14.60
2018-07-22T07:59:10.051Z,14.30
2018-07-22T08:00:10.073Z,14.10
2018-07-22T08:01:10.085Z,14.50
2018-07-22T08:02:10.106Z,14.80
2018-07-22T08:03:10.117Z,15.10
2018-07-22T08:04:10.141Z,15.50
2018-07-22T08:05:10.215Z,14.10
2018-07-22T08:06:10.175Z,14.20
2018-07-22T08:07:10.189Z,13.70
2018-07-22T08:08:10.206Z,13.40
2018-07-22T08:09:10.251Z,13.10
2018-07-22T08:10:10.244Z,13.50
2018-07-22T08:11:10.327Z,13.80
2018-07-22T08:12:10.293Z,16.70
2018-07-22T08:13:10.299Z,14.00
2018-07-22T08:14:10.313Z,13.00
2018-07-22T08:15:10.328Z,13.80
2018-07-22T08:16:10.351Z,12.50
2018-07-22T08:17:10.366Z,12.80
2018-07-22T08:18:10.384Z,12.30
2018-07-22T08:19:10.515Z,11.60
2018-07-22T08:20:10.423Z,12.10
2018-07-22T08:21:10.436Z,12.80
2018-07-22T08:22:10.542Z,11.40
2018-07-22T08:23:10.473Z,10.80
2018-07-22T08:24:10.487Z,12.70
2018-07-22T08:25:10.509Z,10.60
2018-07-22T08:26:10.563Z,11.10
2018-07-22T08:27:10.598Z,10.40
2018-07-22T08:28:10.559Z,9.60
2018-07-22T08:29:10.878Z,9.80
2018-07-22T08:30:10.598Z,10.20
2018-07-22T08:31:10.615Z,10.80
2018-07-22T08:32:10.635Z,10.60
2018-07-22T08:33:10.647Z,10.00
2018-07-22T08:34:10.665Z,11.40
2018-07-22T08:35:10.686Z,11.20
2018-07-22T08:36:10.700Z,11.00
2018-07-22T08:37:10.723Z,11.20
2018-07-22T08:38:10.768Z,9.90
2018-07-22T08:39:10.757Z,9.30
2018-07-22T08:40:10.774Z,9.60
2018-07-22T08:41:10.811Z,9.80
2018-07-22T08:42:10.808Z,10.30
2018-07-22T08:43:10.834Z,9.60
2018-07-22T08:44:10.858Z,9.80
2018-07-22T08:45:10.878Z,10.10
2018-07-22T08:46:10.882Z,10.10
2018-07-22T08:47:10.898Z,9.80
2018-07-22T08:48:10.917Z,9.80
2018-07-22T08:49:10.933Z,8.80
2018-07-22T08:50:10.952Z,8.50
2018-07-22T08:51:10.974Z,9.20
2018-07-22T08:52:10.992Z,9.20
2018-07-22T08:53:11.035Z,9.00
2018-07-22T08:54:11.028Z,9.00
2018-07-22T08:56:11.420Z,7.50
2018-07-22T08:57:12.743Z,6.40
2018-07-22T08:58:11.904Z,7.30
2018-07-22T08:59:11.176Z,6.30
2018-07-22T09:00:11.370Z,8.30
2018-07-22T09:03:12.667Z,6.00
2018-07-22T09:04:13.269Z,7.30
2018-07-22T09:06:11.379Z,7.30
2018-07-22T09:07:11.264Z,7.50
2018-07-22T09:09:12.981Z,6.10
2018-07-22T09:11:11.595Z,6.80
2018-07-22T09:12:11.388Z,6.30
2018-07-22T09:13:12.332Z,7.50
2018-07-22T09:14:13.860Z,8.00
2018-07-22T09:15:11.657Z,7.10
2018-07-22T09:16:11.938Z,6.10
2018-07-22T09:17:11.452Z,6.70
2018-07-22T09:19:11.687Z,6.30
2018-07-22T09:20:14.017Z,6.10
2018-07-22T09:22:12.227Z,7.30
2018-07-22T09:23:12.807Z,6.20
2018-07-22T09:25:12.108Z,7.00
2018-07-22T09:27:12.196Z,5.70
2018-07-22T09:28:12.040Z,6.20
2018-07-22T09:29:11.670Z,5.50
2018-07-22T09:30:11.681Z,6.90
2018-07-22T09:31:11.708Z,7.00
2018-07-22T09:32:11.718Z,6.00
2018-07-22T09:33:12.169Z,6.00
2018-07-22T09:36:12.604Z,6.20
2018-07-22T09:37:11.970Z,5.30
2018-07-22T09:38:11.841Z,5.30
2018-07-22T09:39:11.905Z,8.90
2018-07-22T09:40:11.919Z,6.60
2018-07-22T09:42:12.013Z,5.60
2018-07-22T09:43:11.923Z,6.60
2018-07-22T09:44:11.942Z,5.10
2018-07-22T09:45:12.046Z,5.70
2018-07-22T09:46:11.982Z,6.80
2018-07-22T09:47:12.001Z,4.00
2018-07-22T09:48:12.192Z,6.00
2018-07-22T09:49:12.861Z,4.90
2018-07-22T09:50:12.157Z,5.50
2018-07-22T09:51:12.078Z,6.60
2018-07-22T09:52:12.107Z,6.00
2018-07-22T09:53:12.915Z,5.60
2018-07-22T09:54:12.810Z,7.00
2018-07-22T09:56:12.759Z,5.70
2018-07-22T09:57:12.195Z,5.30
2018-07-22T09:59:12.259Z,4.70
2018-07-22T10:00:12.387Z,6.20
2018-07-22T10:01:12.809Z,6.40
2018-07-22T10:02:12.421Z,5.30
2018-07-22T10:03:12.315Z,5.40
2018-07-22T10:04:12.386Z,4.60
2018-07-22T10:05:12.339Z,6.60
2018-07-22T10:06:12.374Z,5.40
2018-07-22T10:07:13.062Z,5.80
2018-07-22T10:08:12.794Z,4.90
2018-07-22T10:09:12.466Z,7.50
2018-07-22T10:10:13.121Z,4.80
2018-07-22T10:11:12.494Z,5.10
2018-07-22T10:12:12.641Z,4.80
2018-07-22T10:13:12.721Z,5.00
2018-07-22T10:15:12.976Z,6.00
2018-07-22T10:16:13.122Z,4.80
2018-07-22T10:17:12.753Z,4.40
2018-07-22T10:18:12.945Z,6.10
2018-07-22T10:19:12.661Z,5.80
2018-07-22T10:20:12.735Z,4.70
2018-07-22T10:21:13.787Z,5.60
2018-07-22T10:22:12.664Z,5.00
2018-07-22T10:23:12.733Z,5.80
2018-07-22T10:24:12.904Z,4.70
2018-07-22T10:25:12.785Z,4.50
2018-07-22T10:26:12.747Z,4.20
2018-07-22T10:27:12.766Z,4.40
2018-07-22T10:28:12.776Z,4.40
2018-07-22T10:29:12.798Z,5.10
2018-07-22T10:30:12.818Z,4.60
2018-07-22T10:31:12.834Z,4.20
2018-07-22T10:32:12.858Z,4.80
2018-07-22T10:33:12.971Z,4.70
2018-07-22T10:34:12.957Z,5.70
2018-07-22T10:35:12.923Z,4.80
2018-07-22T10:36:14.188Z,4.80
2018-07-22T10:37:13.075Z,4.90
2018-07-22T10:38:13.181Z,4.60
2018-07-22T10:39:13.196Z,6.10
2018-07-22T10:40:13.009Z,4.70
2018-07-22T10:41:13.190Z,5.10
2018-07-22T10:42:14.363Z,5.10
2018-07-22T10:44:13.358Z,5.30
2018-07-22T10:45:15.624Z,4.80
2018-07-22T10:46:13.330Z,4.90
2018-07-22T10:47:14.028Z,5.20
2018-07-22T10:48:13.311Z,4.90
2018-07-22T10:49:14.236Z,5.00
2018-07-22T10:50:14.415Z,5.70
2018-07-22T10:51:13.923Z,5.10
2018-07-22T10:52:13.298Z,5.10
2018-07-22T10:53:13.295Z,4.80
2018-07-22T10:54:13.291Z,5.20
2018-07-22T10:55:13.303Z,4.40
2018-07-22T10:56:13.431Z,4.90
2018-07-22T10:58:14.289Z,5.70
2018-07-22T10:59:13.614Z,4.50
2018-07-22T11:00:14.061Z,6.00
2018-07-22T11:01:14.402Z,5.00
2018-07-22T11:02:14.193Z,5.30
2018-07-22T11:03:13.669Z,5.90
2018-07-22T11:04:13.709Z,5.10
2018-07-22T11:05:13.608Z,5.00
2018-07-22T11:06:13.730Z,4.90
2018-07-22T11:07:13.648Z,5.50
2018-07-22T11:08:13.564Z,4.50
2018-07-22T11:09:14.072Z,4.90
2018-07-22T11:13:13.947Z,6.00
2018-07-22T11:14:14.873Z,6.00
2018-07-22T11:15:13.923Z,5.50
2018-07-22T11:16:13.768Z,6.90
2018-07-22T11:17:13.763Z,6.10
2018-07-22T11:18:13.769Z,5.10
2018-07-22T11:19:13.788Z,5.60
2018-07-22T11:20:13.808Z,6.70
2018-07-22T11:21:13.867Z,4.90
2018-07-22T11:22:14.120Z,7.40
2018-07-22T11:23:14.338Z,5.90
2018-07-22T11:24:14.601Z,5.20
2018-07-22T11:26:14.770Z,5.70
2018-07-22T11:27:14.350Z,6.70
2018-07-22T11:28:14.263Z,5.20
2018-07-22T11:30:14.154Z,5.90
2018-07-22T11:31:14.031Z,5.40
2018-07-22T11:32:15.085Z,5.10
2018-07-22T11:33:14.072Z,5.70
2018-07-22T11:34:14.190Z,5.40
2018-07-22T11:35:14.393Z,5.90
2018-07-22T11:36:14.384Z,6.20
2018-07-22T11:37:14.485Z,5.40
2018-07-22T11:38:15.048Z,4.70
2018-07-22T11:39:14.811Z,4.90
2018-07-22T11:41:15.251Z,5.90
2018-07-22T11:42:14.878Z,7.50
2018-07-22T11:43:14.282Z,7.10
2018-07-22T11:44:14.307Z,6.10
2018-07-22T11:45:14.325Z,6.30
2018-07-22T11:46:14.381Z,6.40
2018-07-22T11:47:14.395Z,6.10
2018-07-22T11:48:14.660Z,5.90
2018-07-22T11:49:14.517Z,5.80
2018-07-22T11:50:14.508Z,5.50
2018-07-22T11:51:14.455Z,5.70
2018-07-22T11:53:15.412Z,4.90
2018-07-22T11:54:15.875Z,5.40
2018-07-22T11:55:15.105Z,5.20
2018-07-22T11:56:14.782Z,5.30
2018-07-22T11:57:14.875Z,6.60
2018-07-22T11:58:14.613Z,6.10
2018-07-22T11:59:15.274Z,6.70
2018-07-22T12:00:14.959Z,6.60
2018-07-22T12:01:15.028Z,5.90
2018-07-22T12:02:14.861Z,5.80
2018-07-22T12:03:14.750Z,5.30
2018-07-22T12:04:14.753Z,6.20
2018-07-22T12:05:14.743Z,6.40
2018-07-22T12:06:14.763Z,5.30
2018-07-22T12:07:14.879Z,5.50
2018-07-22T12:08:14.839Z,5.30
2018-07-22T12:09:14.859Z,7.00
2018-07-22T12:10:14.845Z,5.80
2018-07-22T12:12:15.821Z,7.00
2018-07-22T12:13:15.587Z,5.90
2018-07-22T12:14:15.847Z,5.60
2018-07-22T12:16:15.088Z,5.60
2018-07-22T12:18:16.864Z,5.40
2018-07-22T12:19:17.175Z,6.70
2018-07-22T12:20:15.057Z,8.00
2018-07-22T12:21:15.092Z,6.30
2018-07-22T12:22:17.037Z,6.70
2018-07-22T12:23:15.376Z,5.80
2018-07-22T12:26:15.249Z,6.50
2018-07-22T12:27:15.243Z,6.20
2018-07-22T12:29:16.304Z,6.60
2018-07-22T12:30:17.175Z,7.60
2018-07-22T12:32:15.465Z,6.10
2018-07-22T12:33:15.692Z,5.60
2018-07-22T12:34:15.623Z,5.70
2018-07-22T12:35:15.421Z,6.10
2018-07-22T12:36:16.289Z,7.60
2018-07-22T12:37:16.793Z,5.20
2018-07-22T12:38:15.564Z,5.80
2018-07-22T12:39:16.571Z,6.40
2018-07-22T12:40:16.494Z,5.50
2018-07-22T12:41:18.059Z,7.30
2018-07-22T12:43:16.012Z,5.50
2018-07-22T12:44:15.684Z,5.90
2018-07-22T12:45:15.592Z,6.40
2018-07-22T12:46:15.609Z,5.20
2018-07-22T12:47:15.630Z,5.70
2018-07-22T12:48:16.319Z,5.00
2018-07-22T12:49:15.815Z,4.90
2018-07-22T12:50:16.532Z,5.90
2018-07-22T12:51:15.845Z,6.30
2018-07-22T12:53:16.953Z,5.30
2018-07-22T12:54:15.777Z,5.50
2018-07-22T12:55:16.035Z,5.20
2018-07-22T12:56:16.647Z,6.60
2018-07-22T12:57:15.865Z,4.90
2018-07-22T12:59:17.524Z,5.40
2018-07-22T13:00:17.016Z,5.00
2018-07-22T13:01:15.939Z,6.10
2018-07-22T13:02:15.962Z,5.50
2018-07-22T13:03:15.978Z,5.60
2018-07-22T13:04:16.001Z,6.00
2018-07-22T13:05:16.024Z,5.20
2018-07-22T13:06:16.047Z,5.40
2018-07-22T13:07:16.475Z,5.10
2018-07-22T13:08:16.365Z,5.40
2018-07-22T13:09:16.124Z,5.60
2018-07-22T13:10:16.146Z,4.80
2018-07-22T13:11:16.245Z,5.20
2018-07-22T13:12:17.277Z,5.30
2018-07-22T13:13:16.212Z,5.30
2018-07-22T13:14:17.906Z,4.90
2018-07-22T13:15:19.370Z,6.30
2018-07-22T13:16:16.436Z,5.60
2018-07-22T13:17:16.700Z,6.30
2018-07-22T13:19:16.412Z,5.40
2018-07-22T13:20:16.502Z,5.50
2018-07-22T13:21:16.440Z,7.70
2018-07-22T13:22:16.393Z,5.50
2018-07-22T13:23:16.424Z,5.00
2018-07-22T13:24:16.432Z,5.00
2018-07-22T13:25:16.455Z,7.50
2018-07-22T13:26:16.539Z,5.70
2018-07-22T13:27:16.512Z,5.20
2018-07-22T13:28:16.534Z,5.90
2018-07-22T13:29:16.549Z,5.10
2018-07-22T13:30:16.639Z,5.40
2018-07-22T13:31:16.593Z,5.30
2018-07-22T13:32:16.616Z,7.10
2018-07-22T13:33:16.802Z,5.30
2018-07-22T13:34:16.728Z,6.30
2018-07-22T13:35:16.878Z,6.20
2018-07-22T13:36:17.034Z,6.30
2018-07-22T13:37:16.866Z,5.70
2018-07-22T13:38:16.927Z,5.30
2018-07-22T13:39:17.013Z,5.00
2018-07-22T13:40:16.799Z,6.50